Time;durP1;ratioP1;P1;durP2;ratioP2;P2;SDS_P1;SDS_P2;PMS_P1;PMS_P2;Temp;Humidity;BMP_temperature;BMP_pressure;BME280_temperature;BME280_humidity;BME280_pressure;Samples;Min_cycle;Max_cycle;Signal;HPM_P1;HPM_P2
2022/08/13 00:01:04;;;;;;;8.30;3.92;;;;;;;20.96;57.26;93714.84;5062744;28;20259;-75
2022/08/13 00:03:30;;;;;;;4.72;3.13;;;;;;;20.97;56.96;93711.00;5062971;28;20222;-76
2022/08/13 00:05:56;;;;;;;4.75;3.28;;;;;;;20.97;56.83;93712.94;5062753;28;20048;-76
2022/08/13 00:08:25;;;;;;;4.20;3.30;;;;;;;20.95;57.13;93710.59;5062655;28;20028;-76
2022/08/13 00:10:51;;;;;;;10.05;3.80;;;;;;;20.95;57.23;93701.72;5062480;28;20084;-76
2022/08/13 00:13:18;;;;;;;5.15;3.63;;;;;;;20.93;57.55;93710.22;5062588;28;20017;-76
2022/08/13 00:15:46;;;;;;;6.38;3.75;;;;;;;20.95;57.26;93707.13;5062641;28;20350;-76
2022/08/13 00:18:18;;;;;;;8.73;3.95;;;;;;;20.93;57.04;93704.03;5062585;28;20033;-76
2022/08/13 00:20:53;;;;;;;5.75;3.60;;;;;;;20.93;57.25;93699.38;5062824;28;20025;-76
2022/08/13 00:23:21;;;;;;;7.70;3.25;;;;;;;20.93;57.29;93701.31;5062476;28;20051;-75
2022/08/13 00:25:49;;;;;;;7.05;4.03;;;;;;;20.91;57.24;93692.78;5062347;28;20028;-76
2022/08/13 00:28:19;;;;;;;8.77;4.38;;;;;;;20.87;57.61;93694.72;5062486;28;20049;-76
2022/08/13 00:30:46;;;;;;;5.47;3.38;;;;;;;20.85;57.70;93692.38;5062458;28;20036;-75
2022/08/13 00:33:15;;;;;;;9.43;4.43;;;;;;;20.81;57.82;93684.22;5062755;28;20066;-76
2022/08/13 00:35:47;;;;;;;12.60;4.40;;;;;;;20.79;57.92;93678.44;5062574;28;20070;-76
2022/08/13 00:38:31;;;;;;;7.53;3.97;;;;;;;20.79;58.16;93680.38;5062389;28;20029;-76
2022/08/13 00:40:59;;;;;;;5.30;3.80;;;;;;;20.78;58.03;93681.50;5062339;28;20234;-75
2022/08/13 00:43:26;;;;;;;8.18;4.10;;;;;;;20.75;58.00;93685.75;5062402;28;20028;-75
2022/08/13 00:45:54;;;;;;;7.13;3.92;;;;;;;20.75;57.82;93687.69;5061109;28;20334;-75
2022/08/13 00:51:06;;;;;;;7.25;4.30;;;;;;;20.69;57.80;93690.00;5066012;28;20032;-75
2022/08/13 00:53:33;;;;;;;10.60;3.83;;;;;;;20.66;57.80;93679.16;5065971;28;20063;-75
2022/08/13 00:55:59;;;;;;;6.85;4.65;;;;;;;20.59;57.57;93696.16;5065620;28;20071;-75
2022/08/13 00:58:27;;;;;;;8.35;4.35;;;;;;;20.59;57.45;93691.50;5065816;28;20029;-75
2022/08/13 01:00:58;;;;;;;11.38;4.85;;;;;;;20.56;57.29;93686.84;5065813;28;20032;-75
2022/08/13 01:03:26;;;;;;;8.10;4.87;;;;;;;20.54;58.12;93686.44;5065766;28;20021;-75
2022/08/13 01:05:52;;;;;;;9.60;4.57;;;;;;;20.54;58.84;93681.03;5065724;28;20020;-75
2022/08/13 01:08:18;;;;;;;5.75;4.13;;;;;;;20.50;59.10;93685.66;5065560;28;20043;-75
2022/08/13 01:10:48;;;;;;;7.60;3.50;;;;;;;20.53;59.17;93679.44;5065753;28;20024;-75
2022/08/13 01:13:16;;;;;;;6.03;4.40;;;;;;;20.55;59.27;93679.09;5065631;28;20020;-75
2022/08/13 01:15:42;;;;;;;10.52;4.18;;;;;;;20.55;59.56;93679.84;5065436;28;20044;-75
2022/08/13 01:18:15;;;;;;;7.70;4.85;;;;;;;20.56;59.97;93675.22;5065373;28;20025;-75
2022/08/13 01:20:46;;;;;;;5.32;4.00;;;;;;;20.56;59.75;93683.34;5065486;28;20033;-75
2022/08/13 01:23:14;;;;;;;6.38;3.92;;;;;;;20.54;59.25;93677.53;5065548;28;20021;-75
2022/08/13 01:25:40;;;;;;;6.22;4.30;;;;;;;20.55;59.64;93679.84;5065272;28;20017;-75
2022/08/13 01:28:07;;;;;;;8.15;4.55;;;;;;;20.55;59.34;93679.09;5065410;28;20056;-74
2022/08/13 01:30:33;;;;;;;5.90;3.55;;;;;;;20.55;59.33;93674.44;5065176;28;20080;-74
2022/08/13 01:33:02;;;;;;;5.72;4.00;;;;;;;20.55;58.80;93674.44;5064095;28;20100;-75
2022/08/13 01:35:29;;;;;;;5.18;3.65;;;;;;;20.56;58.47;93675.22;5065023;28;20070;-74
2022/08/13 01:37:57;;;;;;;8.52;4.05;;;;;;;20.58;58.38;93671.00;5064912;28;20067;-75
2022/08/13 01:40:23;;;;;;;6.07;3.50;;;;;;;20.54;58.36;93670.19;5065116;28;20024;-75
2022/08/13 01:42:50;;;;;;;6.38;4.10;;;;;;;20.54;58.78;93667.47;5064866;28;20017;-75
2022/08/13 01:45:17;;;;;;;7.25;3.88;;;;;;;20.54;58.82;93667.47;5065134;28;20020;-75
2022/08/13 01:50:30;;;;;;;11.15;4.30;;;;;;;20.56;59.18;93661.69;5064966;28;20089;-74
2022/08/13 01:53:07;;;;;;;8.05;4.43;;;;;;;20.53;59.26;93657.78;5064694;28;20025;-75
2022/08/13 01:55:41;;;;;;;6.05;4.28;;;;;;;20.51;59.14;93657.41;5064764;28;20027;-74
2022/08/13 01:58:18;;;;;;;9.50;3.80;;;;;;;20.49;59.38;93661.66;5064542;28;20044;-75
2022/08/13 02:00:52;;;;;;;6.07;3.92;;;;;;;20.46;59.26;93655.06;5064043;28;20021;-74
2022/08/13 02:03:19;;;;;;;5.22;3.58;;;;;;;20.44;59.37;93651.97;5064743;28;20031;-75
2022/08/13 02:05:47;;;;;;;5.85;3.97;;;;;;;20.42;59.54;93657.00;5064741;28;20275;-75
2022/08/13 02:08:14;;;;;;;8.95;4.13;;;;;;;20.41;59.91;93644.59;5064681;28;20068;-75
2022/08/13 02:10:43;;;;;;;7.80;4.53;;;;;;;20.39;59.91;93646.91;5064506;28;20197;-75
2022/08/13 02:13:12;;;;;;;7.93;4.35;;;;;;;20.35;60.20;93646.13;5064417;28;20033;-75
2022/08/13 02:15:41;;;;;;;5.88;4.43;;;;;;;20.34;60.39;93656.19;5064147;28;20328;-75
2022/08/13 02:18:12;;;;;;;7.85;4.07;;;;;;;20.29;60.43;93648.41;5064295;28;20227;-74
2022/08/13 02:21:21;;;;;;;8.10;4.63;;;;;;;20.27;59.61;93649.94;5064343;28;20036;-74
2022/08/13 02:23:57;;;;;;;6.78;3.97;;;;;;;20.26;59.66;93646.47;5064290;28;20020;-74
2022/08/13 02:26:27;;;;;;;6.22;3.90;;;;;;;20.24;59.05;93654.97;5064103;28;20021;-74
2022/08/13 02:28:54;;;;;;;8.70;4.28;;;;;;;20.24;59.30;93659.59;5064061;28;20044;-74
2022/08/13 02:31:21;;;;;;;6.53;4.50;;;;;;;20.26;58.77;93656.53;5064156;28;20021;-75
2022/08/13 02:33:47;;;;;;;7.32;4.15;;;;;;;20.26;59.31;93656.53;5064314;28;20089;-74
2022/08/13 02:36:13;;;;;;;7.22;4.72;;;;;;;20.24;60.00;93660.38;5064119;28;20396;-74
2022/08/13 02:38:40;;;;;;;5.75;4.22;;;;;;;20.23;60.01;93663.47;5063920;28;20088;-74
2022/08/13 02:43:50;;;;;;;7.88;4.40;;;;;;;20.20;59.70;93656.88;5063857;28;20032;-75
2022/08/13 02:46:17;;;;;;;6.30;4.10;;;;;;;20.17;60.03;93657.66;5063828;28;20219;-75
2022/08/13 02:48:43;;;;;;;8.45;4.18;;;;;;;20.17;60.19;93651.44;5063689;28;20017;-75
2022/08/13 02:51:11;;;;;;;11.48;4.20;;;;;;;20.14;59.14;93655.69;5063744;28;20039;-75
2022/08/13 02:53:40;;;;;;;7.40;4.13;;;;;;;20.11;59.19;93650.25;5063375;28;20055;-74
2022/08/13 02:56:08;;;;;;;5.97;3.67;;;;;;;20.10;59.63;93654.91;5063755;28;20196;-74
2022/08/13 02:58:39;;;;;;;7.70;4.30;;;;;;;20.11;60.41;93651.06;5063515;28;20025;-75
2022/08/13 03:01:06;;;;;;;5.90;4.15;;;;;;;20.13;59.92;93651.44;5063497;28;20029;-75
2022/08/13 03:03:31;;;;;;;13.63;4.35;;;;;;;20.11;59.35;93645.63;5063495;28;20035;-75
2022/08/13 03:05:58;;;;;;;7.95;3.92;;;;;;;20.11;60.32;93645.63;5063493;28;20021;-75
2022/08/13 03:08:27;;;;;;;6.00;4.78;;;;;;;20.09;60.50;93649.84;5063308;28;20016;-75
2022/08/13 03:10:54;;;;;;;6.20;4.20;;;;;;;20.09;61.04;93652.56;5063596;28;20032;-75
2022/08/13 03:13:24;;;;;;;10.73;6.32;;;;;;;20.09;60.76;93653.34;5062512;28;20219;-74
2022/08/13 03:15:53;;;;;;;12.93;5.20;;;;;;;20.09;59.84;93653.34;5063009;28;20044;-75
2022/08/13 03:18:19;;;;;;;9.88;4.40;;;;;;;20.07;58.98;93655.66;5063480;28;20250;-75
2022/08/13 03:20:45;;;;;;;6.45;4.50;;;;;;;20.02;59.34;93653.31;5063391;28;20025;-75
2022/08/13 03:23:10;;;;;;;10.60;4.32;;;;;;;20.00;59.84;93652.91;5063093;28;20028;-75
2022/08/13 03:25:37;;;;;;;9.57;5.03;;;;;;;19.99;59.11;93657.53;5062980;28;20044;-75
2022/08/13 03:28:05;;;;;;;6.63;4.93;;;;;;;19.97;58.95;93650.97;5063285;28;20017;-75
2022/08/13 03:30:34;;;;;;;11.13;4.78;;;;;;;19.97;59.39;93656.38;5063148;28;20029;-75
2022/08/13 03:33:12;;;;;;;7.78;4.47;;;;;;;19.92;59.84;93657.50;5062902;28;20021;-74
2022/08/13 03:35:38;;;;;;;6.60;4.25;;;;;;;19.93;60.34;93666.41;5063079;28;20028;-75
2022/08/13 03:38:05;;;;;;;9.20;5.22;;;;;;;19.94;59.72;93663.28;5062928;28;20262;-75
2022/08/13 03:41:16;;;;;;;6.65;4.30;;;;;;;19.94;59.78;93660.59;5062990;28;20039;-75
2022/08/13 03:43:18;;;;;;;8.43;5.00;;;;;;;19.93;59.68;93666.41;5062714;28;20040;-75
2022/08/13 03:45:44;;;;;;;7.72;4.53;;;;;;;19.91;60.05;93657.88;5062732;28;20107;-75
2022/08/13 03:48:13;;;;;;;10.23;6.10;;;;;;;19.92;60.04;93670.25;5062963;28;20044;-75
2022/08/13 03:50:40;;;;;;;6.38;4.82;;;;;;;19.89;59.91;93657.50;5062998;28;20017;-75
2022/08/13 03:53:06;;;;;;;7.18;5.07;;;;;;;19.86;59.78;93674.44;5062773;28;20028;-75
2022/08/13 03:55:33;;;;;;;6.88;5.15;;;;;;;19.88;59.84;93669.44;5062737;28;20984;-75
2022/08/13 03:58:00;;;;;;;7.38;5.05;;;;;;;19.91;59.82;93666.00;5062754;28;20028;-75
2022/08/13 04:00:28;;;;;;;9.50;5.15;;;;;;;19.94;59.71;93668.72;5062838;28;20040;-75
2022/08/13 04:02:55;;;;;;;7.68;4.95;;;;;;;19.93;59.58;93663.69;5062677;28;20058;-74
2022/08/13 04:05:22;;;;;;;11.07;5.07;;;;;;;19.94;60.22;93662.53;5062688;28;20319;-75
2022/08/13 04:07:50;;;;;;;6.20;4.70;;;;;;;20.00;60.89;93666.44;5062996;28;20021;-75
2022/08/13 04:10:16;;;;;;;9.27;4.72;;;;;;;20.01;60.63;93665.28;5062669;28;20024;-76
2022/08/13 04:12:42;;;;;;;11.80;4.90;;;;;;;20.03;60.46;93671.09;5062765;28;20067;-75
2022/08/13 04:15:08;;;;;;;12.80;5.22;;;;;;;20.03;60.27;93666.47;5062512;28;20246;-75
2022/08/13 04:17:37;;;;;;;7.22;5.35;;;;;;;20.02;60.49;93672.25;5062591;28;20099;-75
2022/08/13 04:20:09;;;;;;;8.18;4.82;;;;;;;20.01;60.32;93670.69;5062639;28;20021;-75
2022/08/13 04:22:36;;;;;;;7.72;5.20;;;;;;;19.97;60.62;93680.72;5062564;28;20020;-75
2022/08/13 04:25:04;;;;;;;11.05;5.03;;;;;;;19.91;60.84;93672.19;5066043;28;20024;-75
2022/08/13 04:27:32;;;;;;;9.20;5.63;;;;;;;19.91;61.01;93684.94;5066479;28;20083;-75
2022/08/13 04:29:58;;;;;;;7.65;5.32;;;;;;;19.91;61.26;93680.28;5066546;28;20021;-75
2022/08/13 04:32:24;;;;;;;7.97;5.65;;;;;;;19.90;61.24;93667.13;5066495;28;20146;-75
2022/08/13 04:34:50;;;;;;;8.25;5.60;;;;;;;19.88;61.66;93674.84;5066428;28;20032;-75
2022/08/13 04:37:16;;;;;;;7.80;5.30;;;;;;;19.93;61.84;93669.09;5065189;28;20024;-75
2022/08/13 04:39:42;;;;;;;9.48;5.63;;;;;;;19.97;61.99;93669.91;5066196;28;20196;-75
2022/08/13 04:42:08;;;;;;;8.90;5.30;;;;;;;20.03;60.78;93665.69;5066162;28;20028;-75
2022/08/13 04:44:34;;;;;;;7.05;5.28;;;;;;;20.00;60.77;93661.78;5066354;28;20017;-75
2022/08/13 04:46:59;;;;;;;7.63;5.13;;;;;;;20.04;60.80;93672.63;5066066;28;20025;-74
2022/08/13 04:49:25;;;;;;;8.45;5.45;;;;;;;20.06;61.39;93670.34;5066059;28;20032;-75
2022/08/13 04:51:51;;;;;;;8.07;5.25;;;;;;;20.09;61.94;93664.19;5066064;28;20327;-76
2022/08/13 04:54:19;;;;;;;8.57;5.50;;;;;;;20.11;61.78;93667.28;5066206;28;20021;-75
2022/08/13 04:56:45;;;;;;;7.55;4.70;;;;;;;20.13;62.29;93669.59;5065927;28;20028;-75
2022/08/13 04:59:11;;;;;;;7.70;5.50;;;;;;;20.20;62.90;93667.69;5065694;28;20323;-76
2022/08/13 05:01:37;;;;;;;6.82;5.35;;;;;;;20.26;62.21;93667.34;5065854;28;20017;-76
2022/08/13 05:04:03;;;;;;;8.85;5.65;;;;;;;20.31;61.66;93665.03;5065892;28;20024;-74
2022/08/13 05:06:29;;;;;;;13.85;5.63;;;;;;;20.34;61.05;93668.94;5065785;28;20058;-74
2022/08/13 05:08:56;;;;;;;7.43;5.40;;;;;;;20.36;61.53;93677.47;5065530;28;20084;-74
2022/08/13 05:11:22;;;;;;;6.65;5.57;;;;;;;20.35;61.24;93670.47;5066027;28;20193;-74
2022/08/13 05:13:48;;;;;;;15.38;5.28;;;;;;;20.38;61.85;93675.91;5065803;28;20096;-74
2022/08/13 05:16:17;;;;;;;9.35;5.38;;;;;;;20.43;62.45;93677.47;5065421;28;20052;-74
2022/08/13 05:18:54;;;;;;;9.00;5.28;;;;;;;20.46;61.27;93671.31;5065429;28;20370;-74
2022/08/13 05:21:22;;;;;;;8.23;6.38;;;;;;;20.47;61.15;93667.44;5065634;28;20021;-74
2022/08/13 05:23:53;;;;;;;8.90;6.13;;;;;;;20.54;61.95;93672.13;5065368;28;20029;-74
2022/08/13 05:26:23;;;;;;;10.93;4.70;;;;;;;20.56;61.52;93670.59;5065487;28;20044;-74
2022/08/13 05:28:50;;;;;;;8.60;5.68;;;;;;;20.62;61.65;93671.81;5065506;28;20016;-74
2022/08/13 05:31:17;;;;;;;9.48;5.45;;;;;;;20.64;60.91;93674.91;5065071;28;20067;-74
2022/08/13 05:33:42;;;;;;;8.93;5.68;;;;;;;20.64;60.19;93679.56;5065490;28;20274;-75
2022/08/13 05:36:09;;;;;;;9.50;5.38;;;;;;;20.64;60.09;93672.19;5064047;28;20021;-75
2022/08/13 05:38:35;;;;;;;11.15;6.13;;;;;;;20.71;59.72;93676.09;5064812;28;20143;-75
2022/08/13 05:41:04;;;;;;;9.38;5.07;;;;;;;20.70;59.65;93675.31;5065176;28;20024;-75
2022/08/13 05:43:36;;;;;;;9.32;5.07;;;;;;;20.75;59.79;93672.22;5065167;28;20025;-75
2022/08/13 05:46:05;;;;;;;13.63;5.63;;;;;;;20.78;59.39;93676.88;5064935;28;20103;-75
2022/08/13 05:48:33;;;;;;;7.10;4.82;;;;;;;20.81;58.49;93676.13;5064787;28;20048;-75
2022/08/13 05:51:03;;;;;;;16.90;6.25;;;;;;;20.80;57.97;93676.50;5064965;28;20035;-75
2022/08/13 05:53:29;;;;;;;8.95;5.47;;;;;;;20.88;58.17;93683.47;5064852;28;20092;-75
2022/08/13 05:55:55;;;;;;;11.30;5.75;;;;;;;20.87;58.84;93676.53;5064715;28;20040;-75
2022/08/13 05:58:22;;;;;;;11.90;5.88;;;;;;;20.91;57.81;93668.41;5064825;28;20342;-75
2022/08/13 06:03:33;;;;;;;10.52;5.78;;;;;;;20.96;59.01;93678.84;5064704;28;20028;-75
2022/08/13 06:06:06;;;;;;;20.42;7.00;;;;;;;21.00;58.44;93672.31;5064709;28;20234;-75
2022/08/13 06:08:36;;;;;;;16.85;6.47;;;;;;;21.02;58.54;93680.03;5064553;28;20075;-75
2022/08/13 06:11:04;;;;;;;9.95;5.88;;;;;;;21.08;57.76;93680.44;5064532;28;20084;-75
2022/08/13 06:13:30;;;;;;;17.33;6.13;;;;;;;21.10;58.45;93672.69;5064401;28;20032;-75
2022/08/13 06:16:00;;;;;;;11.73;6.50;;;;;;;21.10;57.97;93678.13;5064185;28;20051;-75
2022/08/13 06:18:29;;;;;;;9.50;6.40;;;;;;;21.14;57.59;93676.97;5064307;28;20341;-75
2022/08/13 06:20:56;;;;;;;13.73;7.30;;;;;;;21.15;57.45;93677.75;5064391;28;20017;-75
2022/08/13 06:23:24;;;;;;;9.50;6.38;;;;;;;21.10;57.56;93678.13;5064336;28;20029;-75
2022/08/13 06:25:51;;;;;;;13.57;6.20;;;;;;;21.08;58.19;93666.91;5064529;28;20131;-75
2022/08/13 06:28:19;;;;;;;8.80;6.15;;;;;;;21.09;57.96;93679.28;5064099;28;20012;-75
2022/08/13 06:30:45;;;;;;;14.60;6.60;;;;;;;21.08;58.39;93678.50;5064089;28;20273;-75
2022/08/13 06:33:11;;;;;;;12.95;7.20;;;;;;;21.04;58.60;93673.09;5064053;28;20108;-75
2022/08/13 06:35:37;;;;;;;8.18;6.20;;;;;;;21.04;59.15;93681.22;5063998;28;20327;-75
2022/08/13 06:38:06;;;;;;;11.63;6.35;;;;;;;21.10;58.96;93675.41;5063855;28;20021;-75
2022/08/13 06:40:35;;;;;;;9.07;6.50;;;;;;;21.15;59.04;93675.81;5063797;28;20023;-75
2022/08/13 06:43:02;;;;;;;12.95;7.15;;;;;;;21.20;58.87;93677.38;5063821;28;20028;-75
2022/08/13 06:45:29;;;;;;;10.95;7.03;;;;;;;21.30;57.04;93675.84;5063834;28;20033;-75
2022/08/13 06:47:55;;;;;;;14.95;7.13;;;;;;;21.33;58.16;93672.34;5063558;28;20066;-75
2022/08/13 06:50:21;;;;;;;13.00;8.25;;;;;;;21.39;56.58;93678.94;5063845;28;20028;-75
2022/08/13 06:52:46;;;;;;;13.50;7.90;;;;;;;21.40;56.18;93667.72;5063778;28;20049;-75
2022/08/13 06:55:12;;;;;;;10.85;8.38;;;;;;;21.36;56.33;93677.78;5063568;28;20032;-75
2022/08/13 06:57:38;;;;;;;12.57;7.85;;;;;;;21.42;56.38;93681.69;5063279;28;20327;-75
2022/08/13 07:00:09;;;;;;;15.43;7.75;;;;;;;21.49;56.37;93675.47;5063637;28;20063;-75
2022/08/13 07:02:36;;;;;;;11.32;7.55;;;;;;;21.58;55.63;93673.16;5063622;28;20067;-75
2022/08/13 07:05:02;;;;;;;12.00;7.40;;;;;;;21.71;55.92;93678.97;5063291;28;20032;-75
2022/08/13 07:07:28;;;;;;;15.90;7.07;;;;;;;21.84;55.49;93674.72;5063389;28;20017;-76
2022/08/13 07:09:54;;;;;;;12.52;7.63;;;;;;;21.96;55.14;93672.75;5063420;28;20017;-75
2022/08/13 07:12:20;;;;;;;14.13;6.32;;;;;;;22.01;54.97;93672.38;5063213;28;20021;-75
2022/08/13 07:14:45;;;;;;;12.98;6.30;;;;;;;22.13;54.59;93674.66;5063107;28;20021;-75
2022/08/13 07:17:11;;;;;;;12.27;6.60;;;;;;;22.36;54.77;93681.63;5063115;28;20059;-75
2022/08/13 07:19:37;;;;;;;12.20;7.78;;;;;;;22.58;53.59;93685.81;5063117;28;20033;-75
2022/08/13 07:22:04;;;;;;;11.82;6.72;;;;;;;22.66;52.07;93683.09;5063156;28;20071;-75
2022/08/13 07:24:29;;;;;;;9.13;6.03;;;;;;;22.65;52.20;93679.59;5063033;28;20104;-75
2022/08/13 07:26:59;;;;;;;10.98;7.10;;;;;;;22.75;51.25;93683.44;5063383;28;20017;-75
2022/08/13 07:29:26;;;;;;;10.25;7.07;;;;;;;22.69;51.74;93685.00;5063243;28;20028;-74
2022/08/13 07:31:53;;;;;;;15.18;7.50;;;;;;;22.74;51.78;93681.91;5063122;28;20067;-75
2022/08/13 07:34:19;;;;;;;9.00;6.53;;;;;;;22.74;53.08;93692.75;5062920;28;20028;-75
2022/08/13 07:36:44;;;;;;;14.75;7.00;;;;;;;22.69;52.04;93685.78;5062868;28;20020;-75
2022/08/13 07:39:12;;;;;;;12.05;7.25;;;;;;;22.72;51.75;93682.28;5062565;28;20087;-75
2022/08/13 07:41:42;;;;;;;11.52;7.10;;;;;;;22.69;51.80;93679.56;5063028;28;20100;-75
2022/08/13 07:44:20;;;;;;;21.50;7.38;;;;;;;22.67;52.22;93679.19;5062909;28;20029;-75
2022/08/13 07:46:46;;;;;;;11.50;7.22;;;;;;;22.73;52.03;93688.47;5062938;28;20025;-75
2022/08/13 07:49:12;;;;;;;19.00;6.95;;;;;;;22.81;52.04;93679.13;5062881;28;20040;-75
2022/08/13 07:51:41;;;;;;;15.52;7.13;;;;;;;22.96;52.19;93685.25;5062620;28;20315;-76
2022/08/13 07:54:07;;;;;;;9.88;6.40;;;;;;;22.91;50.81;93683.75;5062678;28;20024;-75
2022/08/13 07:56:33;;;;;;;12.32;7.38;;;;;;;22.91;51.22;93678.31;5062842;28;20020;-75
2022/08/13 07:59:15;;;;;;;12.98;7.30;;;;;;;22.96;51.56;93682.53;5064673;28;20032;-75
2022/08/13 08:01:49;;;;;;;11.38;7.35;;;;;;;23.10;51.89;93681.72;5066897;28;20091;-75
2022/08/13 08:04:16;;;;;;;9.90;6.97;;;;;;;23.25;52.04;93680.50;5066744;28;20024;-75
2022/08/13 08:06:45;;;;;;;16.50;6.95;;;;;;;23.35;50.48;93676.16;5066833;28;20021;-76
2022/08/13 08:09:22;;;;;;;10.15;7.35;;;;;;;23.31;50.86;93678.91;5066726;28;20069;-75
2022/08/13 08:14:32;;;;;;;11.52;7.63;;;;;;;23.26;50.67;93682.03;5066692;28;20063;-75
2022/08/13 08:17:03;;;;;;;10.88;6.63;;;;;;;23.11;50.59;93684.06;5066582;28;20120;-75
2022/08/13 08:19:31;;;;;;;16.58;6.43;;;;;;;23.20;51.95;93667.31;5066500;28;20192;-75
2022/08/13 08:21:58;;;;;;;10.80;6.80;;;;;;;23.31;51.98;93678.91;5066687;28;20017;-75
2022/08/13 08:24:25;;;;;;;15.32;6.93;;;;;;;23.34;50.94;93680.81;5066767;28;20044;-76
2022/08/13 08:26:53;;;;;;;11.82;7.53;;;;;;;23.25;51.19;93671.56;5066503;28;20024;-75
2022/08/13 08:29:18;;;;;;;10.23;7.28;;;;;;;23.27;50.93;93680.88;5066354;28;20024;-75
2022/08/13 08:31:44;;;;;;;10.93;7.43;;;;;;;23.24;50.57;93673.50;5066435;28;20036;-75
2022/08/13 08:34:11;;;;;;;12.32;6.38;;;;;;;23.25;50.82;93677.78;5066268;28;20058;-75
2022/08/13 08:36:41;;;;;;;13.55;7.88;;;;;;;23.26;51.78;93665.72;5066157;28;20021;-75
2022/08/13 08:44:39;;;;;;;9.15;6.80;;;;;;;23.26;51.68;93665.72;5066174;28;20040;-75
2022/08/13 08:47:05;;;;;;;12.68;7.20;;;;;;;23.20;51.40;93661.88;5066246;28;20112;-75
2022/08/13 08:49:30;;;;;;;9.93;7.40;;;;;;;23.10;51.15;93673.56;5066058;28;20056;-75
2022/08/13 08:51:58;;;;;;;17.45;8.93;;;;;;;23.01;51.38;93674.00;5066163;28;20025;-75
2022/08/13 08:54:24;;;;;;;11.90;8.65;;;;;;;22.98;52.40;93678.28;5066224;28;20028;-76
2022/08/13 08:56:55;;;;;;;13.40;9.15;;;;;;;22.86;52.06;93667.88;5065650;28;20029;-75
2022/08/13 08:59:28;;;;;;;13.68;8.40;;;;;;;22.74;52.28;93679.94;5065900;28;20048;-75
2022/08/13 09:01:55;;;;;;;16.52;8.43;;;;;;;22.60;53.70;93664.47;5066084;28;20028;-76
2022/08/13 09:04:28;;;;;;;9.95;7.55;;;;;;;22.49;54.48;93666.47;5065570;28;20227;-75
2022/08/13 09:06:58;;;;;;;13.13;7.80;;;;;;;22.32;55.59;93662.63;5065932;28;20227;-75
2022/08/13 09:09:25;;;;;;;18.15;8.35;;;;;;;22.26;56.45;93658.78;5065823;28;20032;-75
2022/08/13 09:11:55;;;;;;;16.35;9.60;;;;;;;22.18;55.99;93674.25;5065580;28;20025;-75
2022/08/13 09:14:26;;;;;;;12.90;8.15;;;;;;;22.10;58.37;93661.88;5065518;28;20020;-75
2022/08/13 09:16:54;;;;;;;16.05;8.63;;;;;;;22.07;61.55;93659.19;5065380;28;20111;-75
2022/08/13 09:19:20;;;;;;;22.27;9.02;;;;;;;21.99;62.35;93663.84;5065280;28;20231;-75
2022/08/13 09:21:46;;;;;;;17.75;10.23;;;;;;;21.80;64.07;93659.63;5065541;28;20032;-74
2022/08/13 09:24:15;;;;;;;15.80;10.73;;;;;;;21.58;64.56;93672.41;5064156;28;20235;-75
2022/08/13 09:26:48;;;;;;;20.30;11.10;;;;;;;21.35;67.23;93676.25;5065368;28;20237;-75
2022/08/13 09:29:15;;;;;;;22.98;10.70;;;;;;;21.26;67.21;93672.34;5065518;28;20216;-74
2022/08/13 09:31:45;;;;;;;21.20;11.27;;;;;;;21.25;65.90;93671.59;5065287;28;20063;-75
2022/08/13 09:34:11;;;;;;;20.00;10.80;;;;;;;21.23;65.69;93671.19;5064969;28;20051;-75
2022/08/13 09:36:38;;;;;;;16.80;11.50;;;;;;;21.21;65.27;93671.56;5065270;28;20208;-75
2022/08/13 09:39:05;;;;;;;19.40;11.15;;;;;;;21.16;65.54;93668.47;5065155;28;20029;-75
2022/08/13 09:41:40;;;;;;;21.50;11.60;;;;;;;21.07;66.60;93665.34;5065235;28;20196;-75
2022/08/13 09:44:05;;;;;;;17.40;11.85;;;;;;;21.01;66.95;93668.44;5065014;28;20059;-75
2022/08/13 09:46:34;;;;;;;16.40;10.85;;;;;;;21.06;67.25;93661.09;5065024;28;20017;-75
2022/08/13 09:49:00;;;;;;;18.27;12.13;;;;;;;21.07;65.82;93662.66;5064954;28;20044;-75
2022/08/13 09:51:32;;;;;;;18.58;11.90;;;;;;;21.08;65.90;93656.06;5065010;28;20250;-74
2022/08/13 09:53:58;;;;;;;;;;;;;;;21.10;66.32;93654.50;5065286;28;20049;-75
2022/08/13 09:56:23;;;;;;;24.23;12.65;;;;;;;21.03;66.75;93660.69;5064888;28;19905;-75
2022/08/13 09:58:50;;;;;;;23.95;12.70;;;;;;;21.00;68.58;93658.78;5064633;28;20502;-75
2022/08/13 10:01:19;;;;;;;22.17;13.52;;;;;;;20.90;68.42;93653.31;5064803;28;20239;-74
2022/08/13 10:03:48;;;;;;;19.55;13.52;;;;;;;20.82;69.86;93660.63;5064854;28;20079;-75
2022/08/13 10:06:14;;;;;;;31.05;14.75;;;;;;;20.79;71.80;93673.00;5064517;28;20032;-75
2022/08/13 10:08:40;;;;;;;25.60;14.38;;;;;;;20.77;71.88;93669.13;5064657;28;20032;-74
2022/08/13 10:11:05;;;;;;;26.73;15.45;;;;;;;20.70;71.96;93666.41;5064408;28;20123;-75
2022/08/13 10:13:31;;;;;;;27.65;15.63;;;;;;;20.75;73.73;93666.03;5064605;28;20051;-75
2022/08/13 10:15:56;;;;;;;23.40;14.13;;;;;;;20.80;74.41;93665.66;5064366;28;20231;-75
2022/08/13 10:18:24;;;;;;;19.40;13.38;;;;;;;20.88;74.50;93658.31;5064482;28;20078;-75
2022/08/13 10:20:50;;;;;;;17.35;12.68;;;;;;;20.93;74.49;93656.03;5063733;28;20088;-75
2022/08/13 10:23:16;;;;;;;18.27;13.70;;;;;;;21.04;75.03;93661.47;5064167;28;20017;-76
2022/08/13 10:25:43;;;;;;;25.88;13.55;;;;;;;21.13;73.91;93658.41;5064281;28;20028;-76
2022/08/13 10:28:19;;;;;;;19.13;12.48;;;;;;;21.18;73.07;93655.28;5064257;28;20028;-76
2022/08/13 10:30:46;;;;;;;26.55;13.02;;;;;;;21.27;72.46;93650.28;5064018;28;20021;-76
2022/08/13 10:33:12;;;;;;;19.80;11.95;;;;;;;21.31;72.25;93656.47;5064209;28;20040;-75
2022/08/13 10:35:39;;;;;;;21.05;11.65;;;;;;;21.28;72.12;93654.53;5064166;28;20079;-76
2022/08/13 10:38:06;;;;;;;18.60;11.70;;;;;;;21.31;72.83;93655.69;5063836;28;20024;-76
2022/08/13 10:40:32;;;;;;;19.75;10.85;;;;;;;21.23;71.50;93641.38;5063865;28;20054;-76
2022/08/13 10:42:57;;;;;;;18.35;11.68;;;;;;;21.28;73.38;93640.97;5063882;28;20048;-76
2022/08/13 10:45:30;;;;;;;22.23;12.05;;;;;;;21.31;73.16;93645.66;5063656;28;20033;-76
2022/08/13 10:47:55;;;;;;;21.85;10.88;;;;;;;21.33;72.75;93643.31;5063599;28;20013;-75
2022/08/13 10:50:29;;;;;;;19.45;10.85;;;;;;;21.31;73.26;93650.28;5063716;28;20095;-76
2022/08/13 10:52:56;;;;;;;15.23;9.80;;;;;;;21.25;74.68;93655.31;5063695;28;20101;-76
2022/08/13 10:55:22;;;;;;;12.88;9.25;;;;;;;21.17;72.16;93640.97;5063426;28;20079;-75
2022/08/13 10:57:48;;;;;;;14.15;8.18;;;;;;;21.19;71.84;93646.03;5063390;28;20025;-76
2022/08/13 11:00:16;;;;;;;13.60;8.35;;;;;;;21.21;71.28;93655.31;5063507;28;20200;-76
2022/08/13 11:02:42;;;;;;;13.88;8.98;;;;;;;21.19;71.26;93654.16;5063325;28;20024;-76
2022/08/13 11:05:10;;;;;;;11.88;8.45;;;;;;;21.14;71.55;93651.81;5063250;28;20021;-76
2022/08/13 11:07:37;;;;;;;15.07;10.07;;;;;;;21.12;72.84;93646.00;5063191;28;20025;-76
2022/08/13 11:10:05;;;;;;;18.27;9.50;;;;;;;21.16;73.13;93649.50;5063170;28;20255;-76
2022/08/13 11:12:31;;;;;;;14.85;10.52;;;;;;;21.18;73.77;93647.16;5063442;28;20096;-76
2022/08/13 11:14:56;;;;;;;15.35;10.35;;;;;;;21.25;73.80;93652.59;5063203;28;20258;-76
2022/08/13 11:17:22;;;;;;;15.68;9.68;;;;;;;21.27;72.21;93644.88;5063168;28;20107;-75
2022/08/13 11:19:49;;;;;;;10.57;8.50;;;;;;;21.19;69.23;93635.19;5062815;28;20268;-76
2022/08/13 11:22:18;;;;;;;10.45;8.85;;;;;;;21.07;68.24;93630.13;5063006;28;20370;-76
2022/08/13 11:24:43;;;;;;;12.68;8.23;;;;;;;20.97;69.58;93616.16;5062981;28;20025;-76
2022/08/13 11:27:09;;;;;;;12.20;8.68;;;;;;;20.90;71.32;93615.38;5062911;28;20212;-75
2022/08/13 11:29:34;;;;;;;11.60;9.20;;;;;;;20.84;72.29;93612.25;5062979;28;20032;-76
2022/08/13 11:32:00;;;;;;;16.00;10.00;;;;;;;20.71;73.54;93614.56;5063100;28;20367;-76
2022/08/13 11:34:25;;;;;;;14.20;10.63;;;;;;;20.64;72.45;93611.84;5062077;28;20044;-76
2022/08/13 11:36:52;;;;;;;13.38;10.10;;;;;;;20.57;72.82;93623.38;5062787;28;20021;-75
2022/08/13 11:39:18;;;;;;;13.65;10.07;;;;;;;20.49;73.51;93632.66;5062822;28;20025;-76
2022/08/13 11:41:43;;;;;;;20.88;10.55;;;;;;;20.44;72.82;93630.31;5062846;28;20027;-75
2022/08/13 11:44:09;;;;;;;17.52;10.50;;;;;;;20.42;73.11;93632.63;5062653;28;20025;-75
2022/08/13 11:46:34;;;;;;;17.58;12.32;;;;;;;20.35;74.73;93638.00;5062858;28;20047;-76
2022/08/13 11:49:00;;;;;;;16.08;11.00;;;;;;;20.24;73.19;93641.44;5062815;28;20016;-76